sensor_id;sensor_type;location;lat;lon;timestamp;pressure;altitude;pressure_sealevel;temperature;humidity
30516;BME280;17297;54.022;10.760;2022-11-21T00:00:52;100443.63;;;3.49;66.43
30516;BME280;17297;54.022;10.760;2022-11-21T00:03:17;100433.31;;;3.46;66.38
30516;BME280;17297;54.022;10.760;2022-11-21T00:05:46;100430.78;;;3.44;66.23
30516;BME280;17297;54.022;10.760;2022-11-21T00:08:13;100431.94;;;3.42;66.29
30516;BME280;17297;54.022;10.760;2022-11-21T00:10:39;100430.41;;;3.39;66.23
30516;BME280;17297;54.022;10.760;2022-11-21T00:13:06;100429.75;;;3.37;66.29
30516;BME280;17297;54.022;10.760;2022-11-21T00:15:32;100427.38;;;3.34;66.43
30516;BME280;17297;54.022;10.760;2022-11-21T00:17:57;100433.84;;;3.32;66.26
30516;BME280;17297;54.022;10.760;2022-11-21T00:20:23;100426.00;;;3.30;66.20
30516;BME280;17297;54.022;10.760;2022-11-21T00:22:48;100427.19;;;3.28;66.29
30516;BME280;17297;54.022;10.760;2022-11-21T00:25:14;100419.34;;;3.26;66.31
30516;BME280;17297;54.022;10.760;2022-11-21T00:27:40;100419.50;;;3.24;66.23
30516;BME280;17297;54.022;10.760;2022-11-21T00:30:07;100411.84;;;3.21;66.10
30516;BME280;17297;54.022;10.760;2022-11-21T00:32:32;100416.47;;;3.19;66.23
30516;BME280;17297;54.022;10.760;2022-11-21T00:34:58;100415.63;;;3.19;66.16
30516;BME280;17297;54.022;10.760;2022-11-21T00:37:23;100414.94;;;3.17;66.03
30516;BME280;17297;54.022;10.760;2022-11-21T00:39:48;100419.59;;;3.15;66.11
30516;BME280;17297;54.022;10.760;2022-11-21T00:42:14;100418.06;;;3.12;66.27
30516;BME280;17297;54.022;10.760;2022-11-21T00:44:39;100420.72;;;3.12;66.15
30516;BME280;17297;54.022;10.760;2022-11-21T00:47:04;100422.84;;;3.09;66.19
30516;BME280;17297;54.022;10.760;2022-11-21T00:49:29;100422.16;;;3.07;65.92
30516;BME280;17297;54.022;10.760;2022-11-21T00:51:55;100419.66;;;3.05;66.09
30516;BME280;17297;54.022;10.760;2022-11-21T00:54:20;100418.16;;;3.03;66.08
30516;BME280;17297;54.022;10.760;2022-11-21T00:56:45;100418.28;;;3.01;66.10
30516;BME280;17297;54.022;10.760;2022-11-21T00:59:11;100412.28;;;2.99;65.95
30516;BME280;17297;54.022;10.760;2022-11-21T01:01:36;100414.28;;;2.97;66.13
30516;BME280;17297;54.022;10.760;2022-11-21T01:04:02;100410.91;;;2.95;66.01
30516;BME280;17297;54.022;10.760;2022-11-21T01:06:27;100407.59;;;2.93;65.85
30516;BME280;17297;54.022;10.760;2022-11-21T01:08:52;100408.56;;;2.92;66.11
30516;BME280;17297;54.022;10.760;2022-11-21T01:11:19;100403.41;;;2.90;66.09
30516;BME280;17297;54.022;10.760;2022-11-21T01:13:45;100400.91;;;2.89;65.86
30516;BME280;17297;54.022;10.760;2022-11-21T01:16:14;100398.41;;;2.87;65.96
30516;BME280;17297;54.022;10.760;2022-11-21T01:18:40;100398.53;;;2.86;65.89
30516;BME280;17297;54.022;10.760;2022-11-21T01:23:38;100397.19;;;2.82;65.81
30516;BME280;17297;54.022;10.760;2022-11-21T01:26:04;100392.88;;;2.81;65.96
30516;BME280;17297;54.022;10.760;2022-11-21T01:28:30;100394.84;;;2.78;65.73
30516;BME280;17297;54.022;10.760;2022-11-21T01:31:07;100391.34;;;2.78;65.88
30516;BME280;17297;54.022;10.760;2022-11-21T01:33:34;100390.50;;;2.77;65.88
30516;BME280;17297;54.022;10.760;2022-11-21T01:38:35;100391.66;;;2.75;65.68
30516;BME280;17297;54.022;10.760;2022-11-21T01:41:01;100389.94;;;2.74;65.86
30516;BME280;17297;54.022;10.760;2022-11-21T01:43:26;100397.09;;;2.73;65.86
30516;BME280;17297;54.022;10.760;2022-11-21T01:48:21;100397.09;;;2.73;65.87
30516;BME280;17297;54.022;10.760;2022-11-21T01:50:48;100397.25;;;2.72;65.92
30516;BME280;17297;54.022;10.760;2022-11-21T01:53:13;100395.44;;;2.72;65.91
30516;BME280;17297;54.022;10.760;2022-11-21T01:55:39;100396.44;;;2.71;65.80
30516;BME280;17297;54.022;10.760;2022-11-21T01:58:04;100398.91;;;2.73;65.65
30516;BME280;17297;54.022;10.760;2022-11-21T02:00:35;100396.25;;;2.73;65.82
30516;BME280;17297;54.022;10.760;2022-11-21T02:03:06;100397.09;;;2.73;65.79
30516;BME280;17297;54.022;10.760;2022-11-21T02:05:34;100404.09;;;2.74;65.70
30516;BME280;17297;54.022;10.760;2022-11-21T02:08:03;100392.63;;;2.74;65.77
30516;BME280;17297;54.022;10.760;2022-11-21T02:10:30;100392.47;;;2.75;65.96
30516;BME280;17297;54.022;10.760;2022-11-21T02:12:57;100392.47;;;2.75;65.66
30516;BME280;17297;54.022;10.760;2022-11-21T02:15:25;100394.84;;;2.78;65.80
30516;BME280;17297;54.022;10.760;2022-11-21T02:17:51;100395.66;;;2.79;65.89
30516;BME280;17297;54.022;10.760;2022-11-21T02:20:19;100382.38;;;2.79;65.91
30516;BME280;17297;54.022;10.760;2022-11-21T02:25:30;100386.56;;;2.82;65.76
30516;BME280;17297;54.022;10.760;2022-11-21T02:27:58;100382.91;;;2.83;65.95
30516;BME280;17297;54.022;10.760;2022-11-21T02:30:26;100375.09;;;2.81;65.67
30516;BME280;17297;54.022;10.760;2022-11-21T02:32:52;100372.28;;;2.83;65.88
30516;BME280;17297;54.022;10.760;2022-11-21T02:35:18;100368.66;;;2.84;65.86
30516;BME280;17297;54.022;10.760;2022-11-21T02:37:46;100365.00;;;2.85;65.92
30516;BME280;17297;54.022;10.760;2022-11-21T02:40:17;100371.16;;;2.85;65.99
30516;BME280;17297;54.022;10.760;2022-11-21T02:45:40;100367.19;;;2.89;65.95
30516;BME280;17297;54.022;10.760;2022-11-21T02:48:06;100366.22;;;2.90;65.80
30516;BME280;17297;54.022;10.760;2022-11-21T02:50:33;100363.41;;;2.92;65.91
30516;BME280;17297;54.022;10.760;2022-11-21T02:52:59;100351.63;;;2.94;65.76
30516;BME280;17297;54.022;10.760;2022-11-21T02:55:25;100351.47;;;2.96;65.86
30516;BME280;17297;54.022;10.760;2022-11-21T02:57:51;100355.81;;;2.97;65.89
30516;BME280;17297;54.022;10.760;2022-11-21T03:00:17;100354.81;;;2.98;65.74
30516;BME280;17297;54.022;10.760;2022-11-21T03:02:43;100355.50;;;3.00;65.85
30516;BME280;17297;54.022;10.760;2022-11-21T03:05:10;100359.00;;;3.00;66.05
30516;BME280;17297;54.022;10.760;2022-11-21T03:07:35;100352.53;;;3.03;66.04
30516;BME280;17297;54.022;10.760;2022-11-21T03:10:01;100356.03;;;3.04;65.87
30516;BME280;17297;54.022;10.760;2022-11-21T03:12:26;100347.06;;;3.05;66.02
30516;BME280;17297;54.022;10.760;2022-11-21T03:14:51;100345.09;;;3.07;65.84
30516;BME280;17297;54.022;10.760;2022-11-21T03:17:17;100344.91;;;3.08;66.07
30516;BME280;17297;54.022;10.760;2022-11-21T03:19:42;100348.28;;;3.10;65.90
30516;BME280;17297;54.022;10.760;2022-11-21T03:22:08;100348.13;;;3.12;65.86
30516;BME280;17297;54.022;10.760;2022-11-21T03:24:33;100349.63;;;3.14;65.90
30516;BME280;17297;54.022;10.760;2022-11-21T03:26:58;100353.16;;;3.15;65.89
30516;BME280;17297;54.022;10.760;2022-11-21T03:29:24;100357.28;;;3.17;66.04
30516;BME280;17297;54.022;10.760;2022-11-21T03:31:49;100355.31;;;3.19;65.96
30516;BME280;17297;54.022;10.760;2022-11-21T03:34:14;100346.34;;;3.20;66.05
30516;BME280;17297;54.022;10.760;2022-11-21T03:36:40;100348.88;;;3.22;66.07
30516;BME280;17297;54.022;10.760;2022-11-21T03:39:05;100351.34;;;3.23;66.04
30516;BME280;17297;54.022;10.760;2022-11-21T03:41:30;100351.34;;;3.23;65.98
30516;BME280;17297;54.022;10.760;2022-11-21T03:44:01;100347.72;;;3.24;66.01
30516;BME280;17297;54.022;10.760;2022-11-21T03:46:28;100348.56;;;3.25;65.95
30516;BME280;17297;54.022;10.760;2022-11-21T03:48:54;100345.06;;;3.24;66.01
30516;BME280;17297;54.022;10.760;2022-11-21T03:51:23;100349.38;;;3.26;66.08
30516;BME280;17297;54.022;10.760;2022-11-21T03:53:48;100353.88;;;3.25;66.17
30516;BME280;17297;54.022;10.760;2022-11-21T03:56:13;100353.03;;;3.24;66.05
30516;BME280;17297;54.022;10.760;2022-11-21T03:58:39;100345.06;;;3.24;66.08
30516;BME280;17297;54.022;10.760;2022-11-21T04:01:05;100343.38;;;3.23;65.97
30516;BME280;17297;54.022;10.760;2022-11-21T04:03:30;100342.41;;;3.24;65.96
30516;BME280;17297;54.022;10.760;2022-11-21T04:05:55;100334.44;;;3.24;65.90
30516;BME280;17297;54.022;10.760;2022-11-21T04:08:21;100345.06;;;3.24;66.07
30516;BME280;17297;54.022;10.760;2022-11-21T04:10:50;100338.75;;;3.26;66.08
30516;BME280;17297;54.022;10.760;2022-11-21T04:13:16;100330.78;;;3.26;65.87
30516;BME280;17297;54.022;10.760;2022-11-21T04:15:42;100334.25;;;3.26;65.92
30516;BME280;17297;54.022;10.760;2022-11-21T04:18:08;100336.94;;;3.26;66.10
30516;BME280;17297;54.022;10.760;2022-11-21T04:20:33;100343.06;;;3.27;65.96
30516;BME280;17297;54.022;10.760;2022-11-21T04:22:59;100343.06;;;3.27;65.97
30516;BME280;17297;54.022;10.760;2022-11-21T04:25:24;100343.06;;;3.27;65.84
30516;BME280;17297;54.022;10.760;2022-11-21T04:27:50;100342.09;;;3.28;65.99
30516;BME280;17297;54.022;10.760;2022-11-21T04:30:15;100354.41;;;3.29;65.87
30516;BME280;17297;54.022;10.760;2022-11-21T04:32:40;100353.56;;;3.28;65.91
30516;BME280;17297;54.022;10.760;2022-11-21T04:35:06;100352.72;;;3.28;66.07
30516;BME280;17297;54.022;10.760;2022-11-21T04:37:32;100353.56;;;3.28;65.96
30516;BME280;17297;54.022;10.760;2022-11-21T04:39:57;100349.06;;;3.29;65.99
30516;BME280;17297;54.022;10.760;2022-11-21T04:42:23;100354.41;;;3.29;65.90
30516;BME280;17297;54.022;10.760;2022-11-21T04:44:48;100353.56;;;3.28;66.04
30516;BME280;17297;54.022;10.760;2022-11-21T04:47:13;100358.72;;;3.30;65.78
30516;BME280;17297;54.022;10.760;2022-11-21T04:49:39;100355.22;;;3.29;65.97
30516;BME280;17297;54.022;10.760;2022-11-21T04:52:04;100355.22;;;3.29;65.95
30516;BME280;17297;54.022;10.760;2022-11-21T04:54:29;100349.06;;;3.29;65.98
30516;BME280;17297;54.022;10.760;2022-11-21T04:56:55;100347.25;;;3.29;66.03
30516;BME280;17297;54.022;10.760;2022-11-21T04:59:20;100338.44;;;3.29;66.12
30516;BME280;17297;54.022;10.760;2022-11-21T05:01:46;100339.28;;;3.29;66.08
30516;BME280;17297;54.022;10.760;2022-11-21T05:04:11;100341.78;;;3.31;65.88
30516;BME280;17297;54.022;10.760;2022-11-21T05:06:36;100354.09;;;3.32;66.10
30516;BME280;17297;54.022;10.760;2022-11-21T05:09:02;100352.25;;;3.32;65.90
30516;BME280;17297;54.022;10.760;2022-11-21T05:11:28;100343.44;;;3.32;65.97
30516;BME280;17297;54.022;10.760;2022-11-21T05:14:11;100352.44;;;3.31;66.13
30516;BME280;17297;54.022;10.760;2022-11-21T05:16:37;100350.59;;;3.31;65.84
30516;BME280;17297;54.022;10.760;2022-11-21T05:19:02;100348.91;;;3.30;65.80
30516;BME280;17297;54.022;10.760;2022-11-21T05:21:27;100347.09;;;3.31;66.04
30516;BME280;17297;54.022;10.760;2022-11-21T05:23:53;100347.09;;;3.31;65.96
30516;BME280;17297;54.022;10.760;2022-11-21T05:26:18;100354.22;;;3.30;65.97
30516;BME280;17297;54.022;10.760;2022-11-21T05:28:43;100348.91;;;3.30;66.09
30516;BME280;17297;54.022;10.760;2022-11-21T05:31:09;100356.88;;;3.30;66.05
30516;BME280;17297;54.022;10.760;2022-11-21T05:33:34;100359.53;;;3.30;65.89
30516;BME280;17297;54.022;10.760;2022-11-21T05:35:59;100356.88;;;3.30;65.82
30516;BME280;17297;54.022;10.760;2022-11-21T05:38:25;100348.91;;;3.30;66.22
30516;BME280;17297;54.022;10.760;2022-11-21T05:40:51;100356.06;;;3.30;66.01
30516;BME280;17297;54.022;10.760;2022-11-21T05:43:16;100355.09;;;3.31;66.14
30516;BME280;17297;54.022;10.760;2022-11-21T05:46:00;100352.56;;;3.29;66.04
30516;BME280;17297;54.022;10.760;2022-11-21T05:48:26;100351.72;;;3.29;66.05
30516;BME280;17297;54.022;10.760;2022-11-21T05:50:51;100346.41;;;3.29;65.88
30516;BME280;17297;54.022;10.760;2022-11-21T05:53:16;100342.09;;;3.28;66.01
30516;BME280;17297;54.022;10.760;2022-11-21T05:55:42;100349.25;;;3.27;65.97
30516;BME280;17297;54.022;10.760;2022-11-21T05:58:07;100344.75;;;3.28;65.89
30516;BME280;17297;54.022;10.760;2022-11-21T06:00:35;100343.06;;;3.27;65.94
30516;BME280;17297;54.022;10.760;2022-11-21T06:03:00;100340.41;;;3.27;65.76
30516;BME280;17297;54.022;10.760;2022-11-21T06:05:44;100336.41;;;3.22;66.02
30516;BME280;17297;54.022;10.760;2022-11-21T06:08:10;100337.22;;;3.23;65.82
30516;BME280;17297;54.022;10.760;2022-11-21T06:10:35;100328.59;;;3.21;65.92
30516;BME280;17297;54.022;10.760;2022-11-21T06:13:01;100332.09;;;3.21;65.92
30516;BME280;17297;54.022;10.760;2022-11-21T06:15:26;100332.09;;;3.21;66.03
30516;BME280;17297;54.022;10.760;2022-11-21T06:17:52;100334.88;;;3.20;65.91
30516;BME280;17297;54.022;10.760;2022-11-21T06:20:17;100334.06;;;3.19;65.96
30516;BME280;17297;54.022;10.760;2022-11-21T06:22:42;100339.38;;;3.19;65.78
30516;BME280;17297;54.022;10.760;2022-11-21T06:25:08;100335.88;;;3.19;65.73
30516;BME280;17297;54.022;10.760;2022-11-21T06:27:33;100340.19;;;3.20;65.84
30516;BME280;17297;54.022;10.760;2022-11-21T06:29:59;100347.22;;;3.21;65.78
30516;BME280;17297;54.022;10.760;2022-11-21T06:32:24;100345.53;;;3.20;66.01
30516;BME280;17297;54.022;10.760;2022-11-21T06:34:50;100334.88;;;3.20;65.80
30516;BME280;17297;54.022;10.760;2022-11-21T06:37:15;100336.56;;;3.21;66.02
30516;BME280;17297;54.022;10.760;2022-11-21T06:39:40;100340.19;;;3.20;65.75
30516;BME280;17297;54.022;10.760;2022-11-21T06:42:05;100342.84;;;3.20;65.91
30516;BME280;17297;54.022;10.760;2022-11-21T06:44:31;100340.19;;;3.20;65.87
30516;BME280;17297;54.022;10.760;2022-11-21T06:46:56;100341.03;;;3.20;66.05
30516;BME280;17297;54.022;10.760;2022-11-21T06:49:21;100337.41;;;3.21;65.88
30516;BME280;17297;54.022;10.760;2022-11-21T06:51:47;100340.06;;;3.21;65.88
30516;BME280;17297;54.022;10.760;2022-11-21T06:54:12;100337.22;;;3.23;65.90
30516;BME280;17297;54.022;10.760;2022-11-21T06:56:37;100340.72;;;3.23;65.95
30516;BME280;17297;54.022;10.760;2022-11-21T06:59:03;100336.94;;;3.26;66.03
30516;BME280;17297;54.022;10.760;2022-11-21T07:01:28;100339.44;;;3.28;65.84
30516;BME280;17297;54.022;10.760;2022-11-21T07:03:54;100343.44;;;3.32;65.85
30516;BME280;17297;54.022;10.760;2022-11-21T07:06:20;100345.94;;;3.33;65.82
30516;BME280;17297;54.022;10.760;2022-11-21T07:08:45;100345.78;;;3.35;65.90
30516;BME280;17297;54.022;10.760;2022-11-21T07:11:12;100344.78;;;3.36;65.85
30516;BME280;17297;54.022;10.760;2022-11-21T07:13:38;100352.16;;;3.42;66.06
30516;BME280;17297;54.022;10.760;2022-11-21T07:16:08;100352.84;;;3.44;66.01
30516;BME280;17297;54.022;10.760;2022-11-21T07:18:34;100356.31;;;3.44;65.85
30516;BME280;17297;54.022;10.760;2022-11-21T07:21:02;100353.66;;;3.44;65.90
30516;BME280;17297;54.022;10.760;2022-11-21T07:23:28;100354.50;;;3.45;65.75
30516;BME280;17297;54.022;10.760;2022-11-21T07:25:54;100353.66;;;3.44;65.72
30516;BME280;17297;54.022;10.760;2022-11-21T07:28:19;100360.81;;;3.44;65.89
30516;BME280;17297;54.022;10.760;2022-11-21T07:30:45;100357.31;;;3.43;65.70
30516;BME280;17297;54.022;10.760;2022-11-21T07:33:10;100365.31;;;3.43;65.92
30516;BME280;17297;54.022;10.760;2022-11-21T07:35:36;100360.00;;;3.43;65.72
30516;BME280;17297;54.022;10.760;2022-11-21T07:38:02;100357.31;;;3.43;65.69
30516;BME280;17297;54.022;10.760;2022-11-21T07:40:28;100349.34;;;3.43;65.70
30516;BME280;17297;54.022;10.760;2022-11-21T07:42:59;100356.50;;;3.43;65.82
30516;BME280;17297;54.022;10.760;2022-11-21T07:45:25;100348.34;;;3.44;65.62
30516;BME280;17297;54.022;10.760;2022-11-21T07:47:59;100348.34;;;3.44;65.85
30516;BME280;17297;54.022;10.760;2022-11-21T07:50:25;100346.38;;;3.46;65.74
30516;BME280;17297;54.022;10.760;2022-11-21T07:52:50;100341.06;;;3.46;65.74
30516;BME280;17297;54.022;10.760;2022-11-21T07:55:16;100336.56;;;3.47;65.81
30516;BME280;17297;54.022;10.760;2022-11-21T07:57:41;100343.41;;;3.50;65.81
30516;BME280;17297;54.022;10.760;2022-11-21T08:00:07;100345.06;;;3.51;65.71
30516;BME280;17297;54.022;10.760;2022-11-21T08:02:33;100336.09;;;3.52;65.79
30516;BME280;17297;54.022;10.760;2022-11-21T08:04:58;100340.44;;;3.53;65.82
30516;BME280;17297;54.022;10.760;2022-11-21T08:07:24;100334.94;;;3.54;65.62
30516;BME280;17297;54.022;10.760;2022-11-21T08:09:49;100342.78;;;3.56;65.73
30516;BME280;17297;54.022;10.760;2022-11-21T08:12:15;100339.13;;;3.57;65.81
30516;BME280;17297;54.022;10.760;2022-11-21T08:14:40;100340.63;;;3.59;65.64
30516;BME280;17297;54.022;10.760;2022-11-21T08:17:06;100335.13;;;3.61;65.54
30516;BME280;17297;54.022;10.760;2022-11-21T08:19:31;100328.84;;;3.62;65.72
30516;BME280;17297;54.022;10.760;2022-11-21T08:21:57;100332.16;;;3.64;65.68
30516;BME280;17297;54.022;10.760;2022-11-21T08:24:22;100327.69;;;3.64;65.76
30516;BME280;17297;54.022;10.760;2022-11-21T08:26:48;100323.03;;;3.66;65.69
30516;BME280;17297;54.022;10.760;2022-11-21T08:29:14;100325.38;;;3.69;65.74
30516;BME280;17297;54.022;10.760;2022-11-21T08:31:40;100324.38;;;3.70;65.72
30516;BME280;17297;54.022;10.760;2022-11-21T08:34:05;100323.41;;;3.72;65.69
30516;BME280;17297;54.022;10.760;2022-11-21T08:36:31;100327.59;;;3.74;65.65
30516;BME280;17297;54.022;10.760;2022-11-21T08:38:56;100327.41;;;3.76;65.62
30516;BME280;17297;54.022;10.760;2022-11-21T08:41:21;100329.06;;;3.77;65.75
30516;BME280;17297;54.022;10.760;2022-11-21T08:44:06;100327.28;;;3.77;65.54
30516;BME280;17297;54.022;10.760;2022-11-21T08:46:33;100311.31;;;3.77;65.61
30516;BME280;17297;54.022;10.760;2022-11-21T08:49:02;100324.44;;;3.79;65.54
30516;BME280;17297;54.022;10.760;2022-11-21T08:51:27;100324.28;;;3.80;65.49
30516;BME280;17297;54.022;10.760;2022-11-21T08:53:52;100328.75;;;3.80;65.57
30516;BME280;17297;54.022;10.760;2022-11-21T08:56:18;100328.59;;;3.81;65.48
30516;BME280;17297;54.022;10.760;2022-11-21T08:58:43;100331.09;;;3.83;65.51
30516;BME280;17297;54.022;10.760;2022-11-21T09:01:08;100329.28;;;3.83;65.40
30516;BME280;17297;54.022;10.760;2022-11-21T09:03:34;100332.59;;;3.85;65.58
30516;BME280;17297;54.022;10.760;2022-11-21T09:05:59;100328.13;;;3.86;65.53
30516;BME280;17297;54.022;10.760;2022-11-21T09:08:25;100332.47;;;3.87;65.51
30516;BME280;17297;54.022;10.760;2022-11-21T09:10:50;100329.63;;;3.88;65.54
30516;BME280;17297;54.022;10.760;2022-11-21T09:13:16;100333.81;;;3.91;65.45
30516;BME280;17297;54.022;10.760;2022-11-21T09:15:41;100334.63;;;3.91;65.57
30516;BME280;17297;54.022;10.760;2022-11-21T09:18:25;100333.47;;;3.94;65.42
30516;BME280;17297;54.022;10.760;2022-11-21T09:20:50;100335.13;;;3.95;65.53
30516;BME280;17297;54.022;10.760;2022-11-21T09:23:16;100336.66;;;3.98;65.54
30516;BME280;17297;54.022;10.760;2022-11-21T09:25:42;100339.31;;;3.98;65.54
30516;BME280;17297;54.022;10.760;2022-11-21T09:28:09;100336.34;;;4.01;65.69
30516;BME280;17297;54.022;10.760;2022-11-21T09:30:35;100342.50;;;4.01;65.74
30516;BME280;17297;54.022;10.760;2022-11-21T09:33:11;100348.50;;;4.03;65.63
30516;BME280;17297;54.022;10.760;2022-11-21T09:35:36;100350.84;;;4.06;65.53
30516;BME280;17297;54.022;10.760;2022-11-21T09:38:02;100353.50;;;4.06;65.46
30516;BME280;17297;54.022;10.760;2022-11-21T09:40:29;100349.19;;;4.05;65.36
30516;BME280;17297;54.022;10.760;2022-11-21T09:43:05;100350.84;;;4.06;65.45
30516;BME280;17297;54.022;10.760;2022-11-21T09:45:36;100348.88;;;4.08;65.54
30516;BME280;17297;54.022;10.760;2022-11-21T09:48:11;100341.69;;;4.09;65.70
30516;BME280;17297;54.022;10.760;2022-11-21T09:50:43;100339.69;;;4.11;65.78
30516;BME280;17297;54.022;10.760;2022-11-21T09:55:41;100348.03;;;4.16;65.49
30516;BME280;17297;54.022;10.760;2022-11-21T09:58:31;100343.41;;;4.18;65.64
30516;BME280;17297;54.022;10.760;2022-11-21T10:00:58;100347.56;;;4.21;65.43
30516;BME280;17297;54.022;10.760;2022-11-21T10:03:26;100335.91;;;4.22;65.59
30516;BME280;17297;54.022;10.760;2022-11-21T10:08:28;100341.56;;;4.27;65.41
30516;BME280;17297;54.022;10.760;2022-11-21T10:11:27;100335.28;;;4.28;65.59
30516;BME280;17297;54.022;10.760;2022-11-21T10:14:16;100325.94;;;4.32;65.62
30516;BME280;17297;54.022;10.760;2022-11-21T10:16:52;100339.13;;;4.33;65.49
30516;BME280;17297;54.022;10.760;2022-11-21T10:25:02;100324.28;;;4.39;65.61
30516;BME280;17297;54.022;10.760;2022-11-21T10:27:36;100320.47;;;4.42;65.31
30516;BME280;17297;54.022;10.760;2022-11-21T10:30:12;100314.00;;;4.44;65.26
30516;BME280;17297;54.022;10.760;2022-11-21T10:32:42;100311.19;;;4.46;65.35
30516;BME280;17297;54.022;10.760;2022-11-21T10:37:49;100318.66;;;4.50;65.47
30516;BME280;17297;54.022;10.760;2022-11-21T10:41:09;100316.34;;;4.55;65.40
30516;BME280;17297;54.022;10.760;2022-11-21T10:44:03;100315.19;;;4.58;65.45
30516;BME280;17297;54.022;10.760;2022-11-21T10:47:00;100318.50;;;4.60;65.30
30516;BME280;17297;54.022;10.760;2022-11-21T10:49:28;100322.69;;;4.62;65.33
30516;BME280;17297;54.022;10.760;2022-11-21T10:52:06;100321.34;;;4.67;65.31
30516;BME280;17297;54.022;10.760;2022-11-21T10:55:02;100318.34;;;4.70;65.38
30516;BME280;17297;54.022;10.760;2022-11-21T10:57:42;100324.19;;;4.73;65.29
30516;BME280;17297;54.022;10.760;2022-11-21T11:02:40;100319.06;;;4.80;65.23
30516;BME280;17297;54.022;10.760;2022-11-21T11:07:40;100328.72;;;4.89;65.05
30516;BME280;17297;54.022;10.760;2022-11-21T11:10:14;100325.53;;;4.94;65.22
30516;BME280;17297;54.022;10.760;2022-11-21T11:12:48;100326.72;;;4.99;65.01
30516;BME280;17297;54.022;10.760;2022-11-21T11:15:31;100325.38;;;5.03;65.04
30516;BME280;17297;54.022;10.760;2022-11-21T11:18:00;100328.53;;;5.07;65.26
30516;BME280;17297;54.022;10.760;2022-11-21T11:20:33;100322.03;;;5.09;65.07
30516;BME280;17297;54.022;10.760;2022-11-21T11:22:59;100320.69;;;5.14;65.00
30516;BME280;17297;54.022;10.760;2022-11-21T11:25:25;100320.34;;;5.17;65.03
30516;BME280;17297;54.022;10.760;2022-11-21T11:27:50;100316.38;;;5.21;64.94
30516;BME280;17297;54.022;10.760;2022-11-21T11:30:18;100316.03;;;5.24;65.03
30516;BME280;17297;54.022;10.760;2022-11-21T11:32:43;100311.19;;;5.27;64.96
30516;BME280;17297;54.022;10.760;2022-11-21T11:37:41;100316.66;;;5.34;64.88
30516;BME280;17297;54.022;10.760;2022-11-21T11:40:34;100320.00;;;5.36;64.86
30516;BME280;17297;54.022;10.760;2022-11-21T11:46:40;100306.50;;;5.38;64.76
30516;BME280;17297;54.022;10.760;2022-11-21T11:49:34;100301.16;;;5.38;64.83
30516;BME280;17297;54.022;10.760;2022-11-21T11:52:24;100309.16;;;5.38;64.70
30516;BME280;17297;54.022;10.760;2022-11-21T11:54:59;100315.50;;;5.37;64.60
30516;BME280;17297;54.022;10.760;2022-11-21T11:57:29;100298.69;;;5.36;64.72
30516;BME280;17297;54.022;10.760;2022-11-21T12:03:10;100292.66;;;5.34;64.61
30516;BME280;17297;54.022;10.760;2022-11-21T12:05:50;100286.66;;;5.32;64.71
30516;BME280;17297;54.022;10.760;2022-11-21T12:08:22;100278.66;;;5.32;64.68
30516;BME280;17297;54.022;10.760;2022-11-21T12:11:15;100276.81;;;5.32;64.62
30516;BME280;17297;54.022;10.760;2022-11-21T12:14:10;100287.50;;;5.32;64.58
30516;BME280;17297;54.022;10.760;2022-11-21T12:16:38;100271.47;;;5.32;64.58
30516;BME280;17297;54.022;10.760;2022-11-21T12:19:13;100265.31;;;5.32;64.68
30516;BME280;17297;54.022;10.760;2022-11-21T12:21:39;100262.50;;;5.33;64.42
30516;BME280;17297;54.022;10.760;2022-11-21T12:24:08;100264.50;;;5.31;64.43
30516;BME280;17297;54.022;10.760;2022-11-21T12:29:23;100280.16;;;5.26;64.52
30516;BME280;17297;54.022;10.760;2022-11-21T12:32:00;100275.34;;;5.22;64.24
30516;BME280;17297;54.022;10.760;2022-11-21T12:37:11;100265.69;;;5.13;64.37
30516;BME280;17297;54.022;10.760;2022-11-21T12:42:27;100260.38;;;5.04;64.46
30516;BME280;17297;54.022;10.760;2022-11-21T12:45:35;100264.56;;;4.99;64.55
30516;BME280;17297;54.022;10.760;2022-11-21T12:51:22;100259.72;;;4.94;64.59
30516;BME280;17297;54.022;10.760;2022-11-21T12:57:13;100262.56;;;4.93;64.41
30516;BME280;17297;54.022;10.760;2022-11-21T13:00:00;100260.75;;;4.93;64.70
30516;BME280;17297;54.022;10.760;2022-11-21T13:02:53;100255.41;;;4.93;64.60
30516;BME280;17297;54.022;10.760;2022-11-21T13:05:30;100256.22;;;4.94;64.61
30516;BME280;17297;54.022;10.760;2022-11-21T13:08:13;100258.56;;;4.97;64.79
30516;BME280;17297;54.022;10.760;2022-11-21T13:10:47;100248.72;;;4.97;64.40
30516;BME280;17297;54.022;10.760;2022-11-21T13:13:21;100240.56;;;4.99;64.42
30516;BME280;17297;54.022;10.760;2022-11-21T13:15:56;100236.72;;;5.01;64.45
30516;BME280;17297;54.022;10.760;2022-11-21T13:18:29;100242.91;;;5.02;64.50
30516;BME280;17297;54.022;10.760;2022-11-21T13:20:57;100239.22;;;5.03;64.30
30516;BME280;17297;54.022;10.760;2022-11-21T13:23:40;100241.91;;;5.03;64.54
30516;BME280;17297;54.022;10.760;2022-11-21T13:28:49;100236.38;;;5.04;64.46
30516;BME280;17297;54.022;10.760;2022-11-21T13:31:29;100242.56;;;5.05;64.51
30516;BME280;17297;54.022;10.760;2022-11-21T13:33:55;100230.06;;;5.05;64.56
30516;BME280;17297;54.022;10.760;2022-11-21T13:50:04;100219.22;;;5.07;64.41
30516;BME280;17297;54.022;10.760;2022-11-21T13:55:19;100218.38;;;5.06;64.43
30516;BME280;17297;54.022;10.760;2022-11-21T13:58:10;100225.38;;;5.07;64.25
30516;BME280;17297;54.022;10.760;2022-11-21T14:06:33;100219.56;;;5.04;64.47
30516;BME280;17297;54.022;10.760;2022-11-21T14:09:21;100220.38;;;5.04;64.10
30516;BME280;17297;54.022;10.760;2022-11-21T14:11:51;100211.56;;;5.04;64.13
30516;BME280;17297;54.022;10.760;2022-11-21T14:14:29;100216.88;;;5.04;64.30
30516;BME280;17297;54.022;10.760;2022-11-21T14:19:33;100219.56;;;5.04;64.28
30516;BME280;17297;54.022;10.760;2022-11-21T14:21:59;100219.56;;;5.04;64.23